Flight Track Log - Related Links

Times and Time Zones

All times are in EDT time to prevent confusion due to time zone crossing. See the N934DL flight status page for this flight to view local times or setup timezone preferences in your user account.

Time Position Orientation Groundspeed Altitude Reporting Facility
EDT Latitude Longitude Course Direction KTS MPH feet Rate Location/Type
Wed 08:17:02 AM 40.6333 -73.8667 224° Southwest 217 250 2,400  Level New York TRACON
Wed 08:19:00 AM 40.2267 -74.0645 211° Southwest  Level FlightAware Approximate
Wed 08:19:12 AM 40.5056 -73.9783 214° Southwest 267 307 8,500  Level New York Center
Wed 08:20:00 AM 40.1256 -74.1431 211° Southwest  Level FlightAware Approximate
Wed 08:20:10 AM 40.4419 -74.0189 206° Southwest 283 326 10,500  Level New York Center
Wed 08:21:00 AM 40.0254 -74.2206 201° Southwest  Level FlightAware Approximate
Wed 08:21:12 AM 40.3486 -74.0772 205° Southwest 317 365 11,700  Level New York Center
Wed 08:22:00 AM 39.9364 -74.3045 224° Southwest  Level FlightAware Approximate
Wed 08:22:10 AM 40.2492 -74.1350 204° Southwest 369 425 14,000  Level New York Center
Wed 08:23:12 AM 40.1539 -74.1844 202° Southwest 405 466 16,100 2,027 Climbing New York Center
Wed 08:24:38 AM 39.9833 -74.2783 203° Southwest 435 501 19,000 2,014 Climbing Washington Center
Wed 08:25:38 AM 39.8844 -74.3694 215° Southwest 440 506 21,000 1,884 Climbing Washington Center
Wed 08:26:39 AM 39.7894 -74.4708 219° Southwest 446 513 22,800 1,550 Climbing Washington Center
Wed 08:27:38 AM 39.7050 -74.5881 227° Southwest 446 513 24,100 1,563 Climbing Washington Center
Wed 08:28:38 AM 39.6144 -74.7000 224° Southwest 451 519 25,900 1,983 Climbing Washington Center
Wed 08:29:39 AM 39.5297 -74.8139 226° Southwest 451 519 28,100 2,000 Climbing Washington Center
Wed 08:30:38 AM 39.4469 -74.9250 226° Southwest 439 505 29,900 1,450 Climbing Washington Center
Wed 08:31:39 AM 39.3642 -75.0333 225° Southwest 432 497 31,000 1,091 Climbing Washington Center
Wed 08:32:39 AM 39.2708 -75.1250 217° Southwest 432 497 32,100 958 Climbing Washington Center
Wed 08:33:38 AM 39.1544 -75.1794 200° South 420 483 32,900 807 Climbing Washington Center
Wed 08:34:38 AM 39.0378 -75.2256 197° South 441 507 33,700 545 Climbing Washington Center
Wed 08:35:39 AM 38.9233 -75.2714 197° South 441 507 34,000 149 Climbing Washington Center
Wed 08:36:39 AM 38.8044 -75.3200 198° South 446 513 34,000  Level Washington Center
Wed 08:37:39 AM 38.6878 -75.3656 197° South 446 513 34,000  Level Washington Center
Wed 08:38:39 AM 38.5711 -75.4164 199° South 446 513 34,000  Level Washington Center
Wed 08:39:39 AM 38.4567 -75.4672 199° South 446 513 34,000  Level Washington Center
Wed 08:40:38 AM 38.3400 -75.5122 197° South 446 513 34,000  Level Washington Center
Wed 08:41:39 AM 38.2397 -75.5733 206° Southwest 446 513 34,000  Level Washington Center
Wed 08:42:39 AM 38.1336 -75.6392 206° Southwest 441 507 34,000  Level Washington Center
Wed 08:43:38 AM 38.0314 -75.7078 208° Southwest 436 502 34,000  Level Washington Center
Wed 08:44:39 AM 37.9206 -75.7839 208° Southwest 436 502 34,000  Level Washington Center
Wed 08:45:39 AM 37.7994 -75.8467 202° Southwest 431 496 34,000  Level Washington Center
Wed 08:46:38 AM 37.7036 -75.9147 209° Southwest 431 496 34,000  Level Washington Center
Wed 08:47:39 AM 37.5969 -75.9797 206° Southwest 431 496 34,000  Level Washington Center
Wed 08:48:38 AM 37.4883 -76.0472 206° Southwest 431 496 34,000  Level Washington Center
Wed 08:49:39 AM 37.3794 -76.1119 205° Southwest 431 496 34,000  Level Washington Center
Wed 08:50:39 AM 37.2539 -76.1817 204° Southwest 437 503 34,000  Level Washington Center
Wed 08:51:38 AM 37.1453 -76.2511 207° Southwest 443 510 34,000  Level Washington Center
Wed 08:52:39 AM 37.0322 -76.3125 203° Southwest 443 510 34,000  Level Washington Center
Wed 08:53:39 AM 36.9131 -76.3583 197° South 449 517 34,000  Level Washington Center
Wed 08:54:39 AM 36.7939 -76.4064 198° South 449 517 34,000  Level Washington Center
Wed 08:55:39 AM 36.6933 -76.4519 200° South 449 517 34,000  Level Washington Center
Wed 08:56:39 AM 36.5742 -76.4997 198° South 444 511 34,000  Level Washington Center
Wed 08:57:39 AM 36.4569 -76.5450 197° South 444 511 34,000  Level Washington Center
Wed 08:58:38 AM 36.3417 -76.5900 197° South 444 511 34,000  Level Washington Center
Wed 08:59:39 AM 36.2350 -76.6322 198° South 444 511 34,000  Level Washington Center
Wed 09:00:39 AM 36.0947 -76.6869 197° South 444 511 34,000  Level Washington Center
Wed 09:01:39 AM 35.9775 -76.7317 197° South 444 511 34,000  Level Washington Center
Wed 09:02:39 AM 35.8622 -76.7786 198° South 444 511 34,000  Level Washington Center
Wed 09:03:39 AM 35.7428 -76.8231 197° South 444 511 34,000  Level Washington Center
Wed 09:04:39 AM 35.6275 -76.8722 199° South 444 511 34,000  Level Washington Center
Wed 09:05:39 AM 35.5103 -76.9164 197° South 439 505 34,000  Level Washington Center
Wed 09:06:38 AM 35.3928 -76.9628 198° South 445 512 34,000  Level Washington Center
Wed 09:07:38 AM 35.2733 -77.0067 197° South 445 512 34,000  Level Washington Center
Wed 09:08:39 AM 35.1519 -77.0528 197° South 450 518 34,000  Level Washington Center
Wed 09:09:38 AM 35.0469 -77.0992 200° South 443 510 34,000  Level Washington Center
Wed 09:10:38 AM 34.9128 -77.1447 196° South 450 518 34,000  Level Washington Center
Wed 09:11:39 AM 34.8058 -77.1881 198° South 457 526 34,000  Level Washington Center
Wed 09:12:38 AM 34.6842 -77.2311 196° South 457 526 34,000  Level Washington Center
Wed 09:13:39 AM 34.5647 -77.2769 198° South 457 526 34,000  Level Washington Center
Wed 09:14:39 AM 34.4431 -77.3247 198° South 457 526 34,000  Level Washington Center
Wed 09:15:39 AM 34.3214 -77.3725 198° South 464 534 34,000  Level Washington Center
Wed 09:17:19 AM 34.1194 -77.4447 196° South 448 516 34,000  Level Jacksonville Center
Wed 09:18:19 AM 33.9983 -77.4922 198° South 448 516 34,000  Level Jacksonville Center
Wed 09:19:19 AM 33.8669 -77.5456 199° South 459 528 34,000  Level Jacksonville Center
Wed 09:20:19 AM 33.7481 -77.5900 197° South 451 519 34,000  Level Jacksonville Center
Wed 09:21:19 AM 33.6389 -77.6267 196° South 458 527 34,000  Level Jacksonville Center
Wed 09:22:19 AM 33.5197 -77.6711 197° South 453 521 34,000  Level Jacksonville Center
Wed 09:23:19 AM 33.3983 -77.7156 197° South 453 521 34,000  Level Jacksonville Center
Wed 09:24:19 AM 33.2772 -77.7597 197° South 458 527 34,000  Level Jacksonville Center
Wed 09:25:19 AM 33.1558 -77.8064 198° South 458 527 34,000  Level Jacksonville Center
Wed 09:26:19 AM 33.0325 -77.8483 196° South 458 527 34,000  Level Jacksonville Center
Wed 09:27:19 AM 32.9089 -77.8947 197° South 458 527 34,000  Level Jacksonville Center
Wed 09:28:19 AM 32.7856 -77.9386 197° South 463 533 34,000  Level Jacksonville Center
Wed 09:29:19 AM 32.6622 -77.9850 198° South 463 533 34,000  Level Jacksonville Center
Wed 09:30:19 AM 32.5364 -78.0261 195° South 469 540 34,000  Level Jacksonville Center
Wed 09:31:19 AM 32.4108 -78.0722 197° South 474 545 34,000  Level Jacksonville Center
Wed 09:32:19 AM 32.2872 -78.1156 197° South 474 545 34,000  Level Jacksonville Center
Wed 09:33:19 AM 32.1614 -78.1567 195° South 474 545 34,000  Level Jacksonville Center
Wed 09:34:19 AM 32.0381 -78.2022 197° South 469 540 34,000 -50 Level Jacksonville Center
Wed 09:35:19 AM 31.8981 -78.2581 199° South 475 547 33,900  Descending Jacksonville Center
Wed 09:36:19 AM 31.7744 -78.3011 196° South 468 539 34,000  Climbing Jacksonville Center
Wed 09:37:19 AM 31.6486 -78.3464 197° South 468 539 33,900  Descending Jacksonville Center
Wed 09:38:19 AM 31.5231 -78.3914 197° South 475 547 34,000 50 Climbing Jacksonville Center
Wed 09:39:19 AM 31.3992 -78.4339 196° South 475 547 34,000  Level Jacksonville Center
Wed 09:40:19 AM 31.2756 -78.4764 196° South 475 547 34,000 -50 Level Jacksonville Center
Wed 09:41:19 AM 31.1475 -78.5211 197° South 467 537 33,900  Descending Jacksonville Center
Wed 09:42:19 AM 31.0219 -78.5681 198° South 478 550 34,000 50 Climbing Jacksonville Center
Wed 09:43:19 AM 30.8958 -78.6103 196° South 478 550 34,000  Level Jacksonville Center
Wed 09:44:19 AM 30.7700 -78.6544 197° South 473 544 34,000  Level Jacksonville Center
Wed 09:45:32 AM 30.6228 -78.7039 196° South 470 541 34,000  Level Miami Center
Wed 09:46:32 AM 30.4953 -78.7281 189° South 464 534 34,000  Level Miami Center
Wed 09:47:32 AM 30.3553 -78.7522 188° South 481 554 34,000  Level Miami Center
Wed 09:48:32 AM 30.2278 -78.7739 188° South 486 559 34,000  Level Miami Center
Wed 09:49:32 AM 30.0942 -78.7978 189° South 492 566 34,000 -50 Level Miami Center
Wed 09:50:32 AM 29.9625 -78.8194 188° South 484 557 33,900  Descending Miami Center
Wed 09:51:32 AM 29.8331 -78.8411 188° South 486 559 34,000 50 Climbing Miami Center
Wed 09:52:32 AM 29.6972 -78.8625 188° South 489 563 34,000  Level Miami Center
Wed 09:53:32 AM 29.5592 -78.8814 187° South 489 563 34,000  Level Miami Center
Wed 09:54:32 AM 29.4256 -78.8981 186° South 489 563 34,000  Level Miami Center
Wed 09:55:32 AM 29.2958 -78.9144 186° South 483 556 34,000  Level Miami Center
Wed 09:56:32 AM 29.1622 -78.9333 187° South 483 556 34,000  Level Miami Center
Wed 09:57:32 AM 29.0367 -78.9453 185° South 475 547 34,000 -150 Level Miami Center
Wed 09:58:32 AM 28.9175 -78.9667 189° South 481 554 33,700 -850 Descending Miami Center
Wed 09:59:32 AM 28.7775 -78.9808 185° South 486 559 32,300 -850 Descending Miami Center
Wed 10:00:32 AM 28.6458 -78.9994 187° South 486 559 32,000 -150 Descending Miami Center
Wed 10:01:32 AM 28.5056 -79.0206 188° South 479 551 32,000  Level Miami Center
Wed 10:02:32 AM 28.3822 -79.0344 186° South 485 558 32,000  Level Miami Center
Wed 10:03:32 AM 28.2356 -79.0717 193° South 486 559 32,000  Level Miami Center
Wed 10:04:32 AM 28.1075 -79.1094 195° South 486 559 32,000  Level Miami Center
Wed 10:05:32 AM 27.9775 -79.1492 195° South 480 552 32,000  Level Miami Center
Wed 10:06:32 AM 27.8600 -79.1842 195° South 480 552 32,000  Level Miami Center
Wed 10:07:32 AM 27.7322 -79.2239 195° South 480 552 32,000 -150 Level Miami Center
Wed 10:08:32 AM 27.5914 -79.2656 195° South 475 547 31,700 -1,350 Descending Miami Center
Wed 10:09:32 AM 27.4636 -79.3050 195° South 475 547 29,300 -2,450 Descending Miami Center
Wed 10:10:32 AM 27.3333 -79.3467 196° South 486 559 26,800 -2,350 Descending Miami Center
Wed 10:11:32 AM 27.2258 -79.3981 203° Southwest 476 548 24,600 -1,400 Descending Miami Center
Wed 10:12:32 AM 27.1081 -79.4517 202° Southwest 467 537 24,000 -300 Descending Miami Center
Wed 10:13:32 AM 26.9775 -79.5092 201° Southwest 459 528 24,000 -500 Level Miami Center
Wed 10:14:32 AM 26.8617 -79.5603 201° Southwest 454 522 23,000 -1,700 Descending Miami Center
Wed 10:15:32 AM 26.7481 -79.6111 202° Southwest 449 517 20,600 -2,150 Descending Miami Center
Wed 10:16:32 AM 26.6489 -79.6528 201° Southwest 439 505 18,700 -2,143 Descending Miami Center
Wed 10:17:10 AM 26.5689 -79.6906 203° Southwest 403 464 17,100 -2,200 Descending Miami Center
Wed 10:17:32 AM 26.5353 -79.7036 199° South 414 476 16,500 -1,082 Descending Miami Center
Wed 10:18:11 AM 26.4656 -79.7392 205° Southwest 390 449 16,000 -500 Descending Miami Center
Wed 10:18:32 AM 26.4506 -79.7550 223° Southwest 391 450 16,000 -197 Level Miami Center
Wed 10:19:12 AM 26.4011 -79.8281 233° Southwest 365 420 15,800 -800 Descending Miami Center
Wed 10:19:32 AM 26.3778 -79.8458 214° Southwest 371 427 15,200 -2,066 Descending Miami Center
Wed 10:20:13 AM 26.3144 -79.8836 208° Southwest 362 417 13,700 -1,900 Descending Miami Center
Wed 10:20:32 AM 26.2975 -79.8947 210° Southwest 371 427 13,300 -1,869 Descending Miami Center
Wed 10:21:14 AM 26.2297 -79.9372 209° Southwest 351 404 11,800 -2,100 Descending Miami Center
Wed 10:21:32 AM 26.2044 -79.9481 201° Southwest 359 413 11,200 -1,645 Descending Miami Center
Wed 10:22:16 AM 26.1386 -79.9903 210° Southwest 341 392 10,100 -1,200 Descending Miami Center
Wed 10:22:32 AM 26.1219 -79.9992 206° Southwest 354 407 10,000 -98 Descending Miami Center
Wed 10:23:17 AM 26.0542 -80.0414 209° Southwest 337 388 10,000  Level Miami Center
Wed 10:23:32 AM 26.0414 -80.0478 204° Southwest 349 402 10,000 -873 Level Miami Center
Wed 10:24:12 AM 25.9864 -80.0833 210° Southwest 296 341 9,200 -1,400 Descending Miami Center
Wed 10:24:32 AM 25.9694 -80.0944 211° Southwest 328 377 8,600 -1,180 Descending Miami Center
Wed 10:25:13 AM 25.9369 -80.1467 235° Southwest 280 322 8,000 -600 Descending Miami Center
Wed 10:25:32 AM 25.9425 -80.1700 285° West 264 304 8,000 -393 Level Miami Center
Wed 10:26:14 AM 25.9433 -80.2278 271° West 228 262 7,600 -1,000 Descending Miami Center
Wed 10:26:32 AM 25.9472 -80.2442 285° West 239 275 7,000 -2,066 Descending Miami Center
Wed 10:27:15 AM 25.9500 -80.3019 273° West 239 275 5,500 -2,057 Descending Miami Center
Wed 10:28:17 AM 25.9547 -80.3714 274° West 230 265 3,400 -1,171 Descending Miami Center
Wed 10:29:18 AM 25.9303 -80.4283 244° Southwest 232 267 3,100 -295 Descending Miami Center

Login

Don't have an account? Register now (free) for customized features, flight alerts, and more!